Time;durP1;ratioP1;P1;durP2;ratioP2;P2;SDS_P1;SDS_P2;PMS_P1;PMS_P2;Temp;Humidity;BMP_temperature;BMP_pressure;BME280_temperature;BME280_humidity;BME280_pressure;Samples;Min_cycle;Max_cycle;Signal;HPM_P1;HPM_P2
2023/10/03 00:00:24;;;;;;;;;;;18.50;99.90;;;;;;5042062;28;19933;-72
2023/10/03 00:02:54;;;;;;;;;;;18.30;99.90;;;;;;5047708;28;20465;-70
2023/10/03 00:05:23;;;;;;;;;;;18.20;99.90;;;;;;5032306;28;20427;-70
2023/10/03 00:07:51;;;;;;;;;;;18.30;99.90;;;;;;5038864;28;19933;-68
2023/10/03 00:10:19;;;;;;;;;;;18.30;99.90;;;;;;5039064;28;19925;-72
2023/10/03 00:12:48;;;;;;;;;;;18.30;99.90;;;;;;5031068;28;19929;-71
2023/10/03 00:15:16;;;;;;;;;;;18.30;99.90;;;;;;5031769;28;20016;-72
2023/10/03 00:17:44;;;;;;;;;;;18.30;99.90;;;;;;5037706;28;19925;-72
2023/10/03 00:20:16;;;;;;;;;;;18.30;99.90;;;;;;5044897;28;19932;-71
2023/10/03 00:22:45;;;;;;;;;;;18.40;99.90;;;;;;5040279;28;20443;-72
2023/10/03 00:25:18;;;;;;;;;;;18.30;99.90;;;;;;5049717;28;20284;-71
2023/10/03 00:27:49;;;;;;;;;;;18.30;99.90;;;;;;5041971;28;19929;-71
2023/10/03 00:30:19;;;;;;;;;;;18.20;99.90;;;;;;5042966;28;19976;-69
2023/10/03 00:32:47;;;;;;;;;;;18.30;99.90;;;;;;5051655;28;19925;-71
2023/10/03 00:35:19;;;;;;;;;;;18.50;99.90;;;;;;5051202;28;19931;-69
2023/10/03 00:37:50;;;;;;;;;;;18.30;99.90;;;;;;5036943;28;19929;-70
2023/10/03 00:40:19;;;;;;;;;;;18.30;99.90;;;;;;5049918;28;19936;-70
2023/10/03 00:42:47;;;;;;;;;;;18.20;99.90;;;;;;5037286;28;19926;-69
2023/10/03 00:45:21;;;;;;;;;;;18.30;99.90;;;;;;5026175;28;20400;-70
2023/10/03 00:47:49;;;;;;;;;;;18.10;99.90;;;;;;5045738;28;19952;-71
2023/10/03 00:50:20;;;;;;;;;;;18.20;99.90;;;;;;5042903;28;19929;-71
2023/10/03 00:52:49;;;;;;;;;;;18.20;99.90;;;;;;5051489;28;19983;-71
2023/10/03 00:55:17;;;;;;;;;;;18.10;99.90;;;;;;5041287;28;19933;-71
2023/10/03 00:57:45;;;;;;;;;;;18.30;99.90;;;;;;5037242;28;19948;-70
2023/10/03 01:00:16;;;;;;;;;;;18.40;99.90;;;;;;5032234;28;19925;-70
2023/10/03 01:02:47;;;;;;;;;;;18.40;99.90;;;;;;5051315;28;20379;-70
2023/10/03 01:05:18;;;;;;;;;;;18.30;99.90;;;;;;5033208;28;20016;-70
2023/10/03 01:07:49;;;;;;;;;;;18.30;99.90;;;;;;5044749;28;19924;-71
2023/10/03 01:10:19;;;;;;;;;;;18.40;99.90;;;;;;5039541;28;19925;-70
2023/10/03 01:12:48;;;;;;;;;;;18.40;99.90;;;;;;5031300;28;19925;-70
2023/10/03 01:15:16;;;;;;;;;;;18.40;99.90;;;;;;5030978;28;19932;-71
2023/10/03 01:17:53;;;;;;;;;;;18.40;99.90;;;;;;5036630;28;19932;-70
2023/10/03 01:20:28;;;;;;;;;;;18.30;99.90;;;;;;5050699;28;19925;-71
2023/10/03 01:22:57;;;;;;;;;;;18.20;99.90;;;;;;5035094;28;20289;-72
2023/10/03 01:25:27;;;;;;;;;;;18.20;99.90;;;;;;5049848;28;19931;-71
2023/10/03 01:27:56;;;;;;;;;;;18.10;99.90;;;;;;5044032;28;19925;-72
2023/10/03 01:30:24;;;;;;;;;;;18.10;99.90;;;;;;5039004;28;19925;-72
2023/10/03 01:32:53;;;;;;;;;;;18.30;99.90;;;;;;5030968;28;19925;-71
2023/10/03 01:35:22;;;;;;;;;;;18.30;99.90;;;;;;5049001;28;19986;-71
2023/10/03 01:37:50;;;;;;;;;;;18.20;99.90;;;;;;5048602;28;19935;-72
2023/10/03 01:40:19;;;;;;;;;;;18.30;99.90;;;;;;5036957;28;19929;-72
2023/10/03 01:42:48;;;;;;;;;;;18.30;99.90;;;;;;5030877;28;19932;-71
2023/10/03 01:45:17;;;;;;;;;;;18.30;99.90;;;;;;5031518;28;19925;-73
2023/10/03 01:47:47;;;;;;;;;;;18.10;99.90;;;;;;5037632;28;19929;-71
2023/10/03 01:50:17;;;;;;;;;;;18.20;99.90;;;;;;5042861;28;19964;-69
2023/10/03 01:52:46;;;;;;;;;;;18.40;99.90;;;;;;5034770;28;19925;-71
2023/10/03 01:55:14;;;;;;;;;;;18.40;99.90;;;;;;5049025;28;19929;-70
2023/10/03 01:57:42;;;;;;;;;;;18.20;99.90;;;;;;5031438;28;19974;-70
2023/10/03 02:00:21;;;;;;;;;;;18.20;99.90;;;;;;5046054;28;19925;-71
2023/10/03 02:02:50;;;;;;;;;;;18.30;99.90;;;;;;5048143;28;19928;-72
2023/10/03 02:05:19;;;;;;;;;;;18.30;99.90;;;;;;5046026;28;19951;-71
2023/10/03 02:07:47;;;;;;;;;;;18.20;99.90;;;;;;5045887;28;19924;-72
2023/10/03 02:10:15;;;;;;;;;;;18.00;99.90;;;;;;5045451;28;19974;-72
2023/10/03 02:12:48;;;;;;;;;;;18.10;99.90;;;;;;5030793;28;20465;-71
2023/10/03 02:15:20;;;;;;;;;;;18.10;99.90;;;;;;5034677;28;19926;-72
2023/10/03 02:17:52;;;;;;;;;;;18.10;99.90;;;;;;5040570;28;19932;-72
2023/10/03 02:20:21;;;;;;;;;;;18.10;99.90;;;;;;5050403;28;19929;-71
2023/10/03 02:22:56;;;;;;;;;;;18.10;99.90;;;;;;5034072;28;20305;-71
2023/10/03 02:25:25;;;;;;;;;;;18.30;99.90;;;;;;5043801;28;19926;-72
2023/10/03 02:27:54;;;;;;;;;;;18.30;99.90;;;;;;5038880;28;19991;-72
2023/10/03 02:30:26;;;;;;;;;;;18.40;99.90;;;;;;5042303;28;19936;-72
2023/10/03 02:32:54;;;;;;;;;;;18.50;99.90;;;;;;5045746;28;19929;-71
2023/10/03 02:35:23;;;;;;;;;;;18.30;99.90;;;;;;5052115;28;20015;-71
2023/10/03 02:37:55;;;;;;;;;;;18.10;99.90;;;;;;5035914;28;19951;-72
2023/10/03 02:40:26;;;;;;;;;;;18.10;99.90;;;;;;5040307;28;19991;-72
2023/10/03 02:42:54;;;;;;;;;;;18.10;99.90;;;;;;5035020;28;19940;-71
2023/10/03 02:45:25;;;;;;;;;;;18.10;99.90;;;;;;5032577;28;19925;-71
2023/10/03 02:47:55;;;;;;;;;;;18.30;99.90;;;;;;5033700;28;19959;-71
2023/10/03 02:50:23;;;;;;;;;;;18.40;99.90;;;;;;5033503;28;19925;-70
2023/10/03 02:52:52;;;;;;;;;;;18.30;99.90;;;;;;5035784;28;20331;-70
2023/10/03 02:55:20;;;;;;;;;;;18.30;99.90;;;;;;5038456;28;19928;-72
2023/10/03 02:57:47;;;;;;;;;;;18.30;99.90;;;;;;5036436;28;19929;-69
2023/10/03 03:00:15;;;;;;;;;;;18.40;99.90;;;;;;5036676;28;19933;-70
2023/10/03 03:02:46;;;;;;;;;;;18.40;99.90;;;;;;5032794;28;19940;-70
2023/10/03 03:05:16;;;;;;;;;;;18.50;99.90;;;;;;5033874;28;20015;-70
2023/10/03 03:07:45;;;;;;;;;;;18.40;99.90;;;;;;5033436;28;19931;-71
2023/10/03 03:10:18;;;;;;;;;;;18.30;99.90;;;;;;5024956;28;20319;-70
2023/10/03 03:12:46;;;;;;;;;;;18.40;99.90;;;;;;5013359;28;19982;-72
2023/10/03 03:15:21;;;;;;;;;;;18.10;99.90;;;;;;5021568;28;19945;-71
2023/10/03 03:17:51;;;;;;;;;;;18.10;99.90;;;;;;5022559;28;19996;-70
2023/10/03 03:20:21;;;;;;;;;;;18.10;99.90;;;;;;5014656;28;19925;-72
2023/10/03 03:22:49;;;;;;;;;;;18.30;99.90;;;;;;5017284;28;20019;-72
2023/10/03 03:25:24;;;;;;;;;;;18.20;99.90;;;;;;5016079;28;20396;-71
2023/10/03 03:27:55;;;;;;;;;;;18.40;99.90;;;;;;5013431;28;19933;-72
2023/10/03 03:30:35;;;;;;;;;;;18.40;99.90;;;;;;5001597;28;20006;-70
2023/10/03 03:33:06;;;;;;;;;;;18.50;99.90;;;;;;5003179;28;19929;-72
2023/10/03 03:35:41;;;;;;;;;;;18.50;99.90;;;;;;5004306;28;19930;-73
2023/10/03 03:38:15;;;;;;;;;;;18.60;99.90;;;;;;5009750;28;19929;-73
2023/10/03 03:40:46;;;;;;;;;;;18.60;99.90;;;;;;5006294;28;19926;-72
2023/10/03 03:43:16;;;;;;;;;;;18.50;99.90;;;;;;5000785;28;19929;-72
2023/10/03 03:45:44;;;;;;;;;;;18.40;99.90;;;;;;5009012;28;19933;-73
2023/10/03 03:48:14;;;;;;;;;;;18.50;99.90;;;;;;5011756;28;20037;-73
2023/10/03 03:50:42;;;;;;;;;;;18.40;99.90;;;;;;5007535;28;19925;-72
2023/10/03 03:53:10;;;;;;;;;;;18.40;99.90;;;;;;5012741;28;19932;-71
2023/10/03 03:55:38;;;;;;;;;;;18.20;99.90;;;;;;5007897;28;19933;-73
2023/10/03 03:58:11;;;;;;;;;;;18.10;99.90;;;;;;4997526;28;19939;-72
2023/10/03 04:00:39;;;;;;;;;;;18.00;99.90;;;;;;4999563;28;20032;-71
2023/10/03 04:03:09;;;;;;;;;;;18.00;99.90;;;;;;5005941;28;19925;-72
2023/10/03 04:05:39;;;;;;;;;;;17.80;99.90;;;;;;5004497;28;20054;-72
2023/10/03 04:08:07;;;;;;;;;;;17.80;99.90;;;;;;5004951;28;19925;-71
2023/10/03 04:10:36;;;;;;;;;;;17.70;99.90;;;;;;5024768;28;19925;-72
2023/10/03 04:13:07;;;;;;;;;;;17.50;99.90;;;;;;5017791;28;19980;-72
2023/10/03 04:15:35;;;;;;;;;;;17.30;99.90;;;;;;5020003;28;19929;-71
2023/10/03 04:18:04;;;;;;;;;;;17.10;99.90;;;;;;5023829;28;19936;-71
2023/10/03 04:20:32;;;;;;;;;;;17.10;99.90;;;;;;5023777;28;19988;-72
2023/10/03 04:23:03;;;;;;;;;;;17.00;99.90;;;;;;5022934;28;20717;-72
2023/10/03 04:25:32;;;;;;;;;;;17.00;99.90;;;;;;5021130;28;19937;-71
2023/10/03 04:28:00;;;;;;;;;;;17.10;99.90;;;;;;5028335;28;19983;-70
2023/10/03 04:30:28;;;;;;;;;;;17.30;99.90;;;;;;5025910;28;20432;-69
2023/10/03 04:32:57;;;;;;;;;;;17.10;99.90;;;;;;5026496;28;19975;-72
2023/10/03 04:35:25;;;;;;;;;;;17.10;99.90;;;;;;5026081;28;19944;-72
2023/10/03 04:37:56;;;;;;;;;;;17.00;99.90;;;;;;5027533;28;19924;-71
2023/10/03 04:40:31;;;;;;;;;;;16.90;99.90;;;;;;5029599;28;19925;-71
2023/10/03 04:42:59;;;;;;;;;;;16.80;99.90;;;;;;5017733;28;19932;-72
2023/10/03 04:45:27;;;;;;;;;;;16.80;99.90;;;;;;5024371;28;20347;-72
2023/10/03 04:47:54;;;;;;;;;;;16.60;99.90;;;;;;5027247;28;19932;-73
2023/10/03 04:50:25;;;;;;;;;;;16.50;99.90;;;;;;5018192;28;20384;-73
2023/10/03 04:52:54;;;;;;;;;;;16.50;99.90;;;;;;5034594;28;19948;-74
2023/10/03 04:55:22;;;;;;;;;;;16.50;99.90;;;;;;5013756;28;19929;-72
2023/10/03 04:57:52;;;;;;;;;;;16.50;99.90;;;;;;5013869;28;19925;-71
2023/10/03 05:00:20;;;;;;;;;;;16.40;99.90;;;;;;5022893;28;20235;-71
2023/10/03 05:02:49;;;;;;;;;;;16.40;99.90;;;;;;5020224;28;20408;-71
2023/10/03 05:05:18;;;;;;;;;;;16.40;99.90;;;;;;5019396;28;19932;-71
2023/10/03 05:07:47;;;;;;;;;;;16.30;99.90;;;;;;5023635;28;20516;-69
2023/10/03 05:10:17;;;;;;;;;;;16.20;99.90;;;;;;5019801;28;19934;-70
2023/10/03 05:12:46;;;;;;;;;;;16.20;99.90;;;;;;5021272;28;19926;-71
2023/10/03 05:15:16;;;;;;;;;;;16.30;99.90;;;;;;5021813;28;19952;-71
2023/10/03 05:17:44;;;;;;;;;;;16.30;99.90;;;;;;5015004;28;19925;-71
2023/10/03 05:20:14;;;;;;;;;;;16.20;99.90;;;;;;5022367;28;20012;-71
2023/10/03 05:22:42;;;;;;;;;;;16.20;99.90;;;;;;5026515;28;19925;-71
2023/10/03 05:25:12;;;;;;;;;;;16.20;99.90;;;;;;5026351;28;19925;-71
2023/10/03 05:27:41;;;;;;;;;;;16.30;99.90;;;;;;5023837;28;19925;-72
2023/10/03 05:30:09;;;;;;;;;;;16.30;99.90;;;;;;5036177;28;19924;-72
2023/10/03 05:32:39;;;;;;;;;;;16.30;99.90;;;;;;5038268;28;19935;-71
2023/10/03 05:35:08;;;;;;;;;;;16.30;99.90;;;;;;5045787;28;19961;-72
2023/10/03 05:37:36;;;;;;;;;;;16.30;99.90;;;;;;5033955;28;19925;-71
2023/10/03 05:40:11;;;;;;;;;;;16.20;99.90;;;;;;5034684;28;20457;-76
2023/10/03 05:42:43;;;;;;;;;;;16.30;99.90;;;;;;5040921;28;20392;-71
2023/10/03 05:45:12;;;;;;;;;;;16.20;99.90;;;;;;5034193;28;20480;-71
2023/10/03 05:47:43;;;;;;;;;;;16.30;99.90;;;;;;5035287;28;19925;-71
2023/10/03 05:50:11;;;;;;;;;;;16.30;99.90;;;;;;5033360;28;19979;-72
2023/10/03 05:52:39;;;;;;;;;;;16.40;99.90;;;;;;5034963;28;20354;-72
2023/10/03 05:55:08;;;;;;;;;;;16.40;99.90;;;;;;5040745;28;19924;-71
2023/10/03 05:57:39;;;;;;;;;;;16.50;99.90;;;;;;5033890;28;19925;-72
2023/10/03 06:00:09;;;;;;;;;;;16.60;99.90;;;;;;5034064;28;19925;-73
2023/10/03 06:02:39;;;;;;;;;;;16.40;99.90;;;;;;5034062;28;19936;-72
2023/10/03 06:05:09;;;;;;;;;;;16.50;99.90;;;;;;5032472;28;19932;-74
2023/10/03 06:07:37;;;;;;;;;;;16.60;99.90;;;;;;5036858;28;20396;-71
2023/10/03 06:10:05;;;;;;;;;;;16.70;99.90;;;;;;5028945;28;19987;-71
2023/10/03 06:12:33;;;;;;;;;;;16.70;99.90;;;;;;5018104;28;19925;-72
2023/10/03 06:15:00;;;;;;;;;;;16.70;99.90;;;;;;5014898;28;19925;-74
2023/10/03 06:17:28;;;;;;;;;;;16.90;99.90;;;;;;5010580;28;19929;-73
2023/10/03 06:19:56;;;;;;;;;;;17.10;99.90;;;;;;4998235;28;19980;-70
2023/10/03 06:22:25;;;;;;;;;;;17.00;99.90;;;;;;4999226;28;20856;-72
2023/10/03 06:24:57;;;;;;;;;;;17.30;99.90;;;;;;5000333;28;19984;-71
2023/10/03 06:27:26;;;;;;;;;;;17.60;99.90;;;;;;5000613;28;19934;-72
2023/10/03 06:29:55;;;;;;;;;;;17.70;99.90;;;;;;5001771;28;20937;-70
2023/10/03 06:32:23;;;;;;;;;;;17.90;99.90;;;;;;5000572;28;19934;-71
2023/10/03 06:34:51;;;;;;;;;;;17.80;99.90;;;;;;5000008;28;20891;-71
2023/10/03 06:37:19;;;;;;;;;;;17.80;99.90;;;;;;5001351;28;19934;-69
2023/10/03 06:39:48;;;;;;;;;;;17.90;99.90;;;;;;4999831;28;19933;-70
2023/10/03 06:42:16;;;;;;;;;;;17.90;99.90;;;;;;5000305;28;21161;-70
2023/10/03 06:44:46;;;;;;;;;;;17.80;99.90;;;;;;5002960;28;20369;-70
2023/10/03 06:47:14;;;;;;;;;;;17.70;99.90;;;;;;5000119;28;19976;-70
2023/10/03 06:49:41;;;;;;;;;;;17.50;99.90;;;;;;5001158;28;19937;-70
2023/10/03 06:52:09;;;;;;;;;;;17.60;99.90;;;;;;4999167;28;19953;-70
2023/10/03 06:54:38;;;;;;;;;;;17.60;99.90;;;;;;4996280;28;19934;-71
2023/10/03 06:57:07;;;;;;;;;;;17.70;99.90;;;;;;4999620;28;19925;-71
2023/10/03 06:59:35;;;;;;;;;;;18.00;99.90;;;;;;4998404;28;20339;-71
2023/10/03 07:02:04;;;;;;;;;;;18.10;99.90;;;;;;4999346;28;19933;-69
2023/10/03 07:04:32;;;;;;;;;;;18.20;99.90;;;;;;4998570;28;19933;-71
2023/10/03 07:07:03;;;;;;;;;;;18.20;99.90;;;;;;4999686;28;19940;-70
2023/10/03 07:09:31;;;;;;;;;;;18.00;99.90;;;;;;4989394;28;19933;-71
2023/10/03 07:12:00;;;;;;;;;;;18.00;99.90;;;;;;5018763;28;21281;-72
2023/10/03 07:14:30;;;;;;;;;;;18.00;99.90;;;;;;5019038;28;19940;-71
2023/10/03 07:16:58;;;;;;;;;;;17.90;99.90;;;;;;5015201;28;20024;-72
2023/10/03 07:19:26;;;;;;;;;;;18.00;99.90;;;;;;5019662;28;20366;-72
2023/10/03 07:21:55;;;;;;;;;;;18.00;99.90;;;;;;5018457;28;19933;-73
2023/10/03 07:24:24;;;;;;;;;;;18.20;99.90;;;;;;5019860;28;19956;-71
2023/10/03 07:26:52;;;;;;;;;;;18.10;99.90;;;;;;5014843;28;19933;-71
2023/10/03 07:29:21;;;;;;;;;;;18.30;99.90;;;;;;5018365;28;19929;-74
2023/10/03 07:31:50;;;;;;;;;;;18.60;99.90;;;;;;5016966;28;19964;-71
2023/10/03 07:34:18;;;;;;;;;;;18.70;99.90;;;;;;5018938;28;20358;-71
2023/10/03 07:36:46;;;;;;;;;;;18.70;99.90;;;;;;5014670;28;20305;-69
2023/10/03 07:39:17;;;;;;;;;;;18.60;99.90;;;;;;4999691;28;19933;-70
2023/10/03 07:41:50;;;;;;;;;;;18.50;99.90;;;;;;5017570;28;19948;-71
2023/10/03 07:44:18;;;;;;;;;;;18.30;99.90;;;;;;5019006;28;20429;-72
2023/10/03 07:46:46;;;;;;;;;;;18.20;99.90;;;;;;5017186;28;20750;-71
2023/10/03 07:49:16;;;;;;;;;;;18.40;99.90;;;;;;5018368;28;20027;-71
2023/10/03 07:51:45;;;;;;;;;;;18.30;99.90;;;;;;5018371;28;19933;-71
2023/10/03 07:54:14;;;;;;;;;;;18.30;99.90;;;;;;5017088;28;20676;-72
2023/10/03 07:56:44;;;;;;;;;;;18.30;99.90;;;;;;5017598;28;20431;-71
2023/10/03 07:59:12;;;;;;;;;;;18.30;99.90;;;;;;5016892;28;20035;-71
2023/10/03 08:01:39;;;;;;;;;;;18.40;99.90;;;;;;5016735;28;19929;-71
2023/10/03 08:04:31;;;;;;;;;;;18.30;99.90;;;;;;5019132;28;20019;-71
2023/10/03 08:07:00;;;;;;;;;;;18.50;99.90;;;;;;5018170;28;19937;-71
2023/10/03 08:09:28;;;;;;;;;;;18.80;99.90;;;;;;5013974;28;20277;-70
2023/10/03 08:11:57;;;;;;;;;;;19.10;99.90;;;;;;5012961;28;20513;-71
2023/10/03 08:14:25;;;;;;;;;;;19.20;99.90;;;;;;5014154;28;19944;-72
2023/10/03 08:16:56;;;;;;;;;;;19.20;99.90;;;;;;5010707;28;19929;-71
2023/10/03 08:19:25;;;;;;;;;;;19.10;99.90;;;;;;4991033;28;19941;-72
2023/10/03 08:21:55;;;;;;;;;;;19.10;99.90;;;;;;5009298;28;19957;-73
2023/10/03 08:24:25;;;;;;;;;;;19.10;99.90;;;;;;5010204;28;20046;-72
2023/10/03 08:26:53;;;;;;;;;;;19.30;99.90;;;;;;5015179;28;19936;-72
2023/10/03 08:29:23;;;;;;;;;;;19.40;99.90;;;;;;5011613;28;19933;-74
2023/10/03 08:31:56;;;;;;;;;;;19.50;99.90;;;;;;5006307;28;20074;-72
2023/10/03 08:34:25;;;;;;;;;;;19.40;99.90;;;;;;5014077;28;19937;-72
2023/10/03 08:36:54;;;;;;;;;;;19.50;99.90;;;;;;5009426;28;20408;-72
2023/10/03 08:39:24;;;;;;;;;;;19.50;99.90;;;;;;5011903;28;20506;-72
2023/10/03 08:41:57;;;;;;;;;;;19.60;99.90;;;;;;5007445;28;19976;-72
2023/10/03 08:44:25;;;;;;;;;;;19.70;99.90;;;;;;5009564;28;19941;-71
2023/10/03 08:46:55;;;;;;;;;;;19.70;99.90;;;;;;5011164;28;19929;-72
2023/10/03 08:49:27;;;;;;;;;;;19.60;99.90;;;;;;5009677;28;19933;-73
2023/10/03 08:51:55;;;;;;;;;;;19.70;99.90;;;;;;5008885;28;20822;-72
2023/10/03 08:54:27;;;;;;;;;;;19.70;99.90;;;;;;5010697;28;19951;-73
2023/10/03 08:56:59;;;;;;;;;;;19.60;99.90;;;;;;5011941;28;19972;-73
2023/10/03 08:59:30;;;;;;;;;;;19.60;99.90;;;;;;5012599;28;19933;-72
2023/10/03 09:02:01;;;;;;;;;;;19.70;99.90;;;;;;5015024;28;20104;-72
2023/10/03 09:04:38;;;;;;;;;;;19.80;99.90;;;;;;5006953;28;19940;-73
2023/10/03 09:07:09;;;;;;;;;;;19.90;99.90;;;;;;5013192;28;19925;-72
2023/10/03 09:09:41;;;;;;;;;;;19.90;99.90;;;;;;5010245;28;22850;-71
2023/10/03 09:12:12;;;;;;;;;;;20.00;99.90;;;;;;5013834;28;19933;-72
2023/10/03 09:14:40;;;;;;;;;;;20.00;99.90;;;;;;5008024;28;20011;-72
2023/10/03 09:17:08;;;;;;;;;;;20.10;99.90;;;;;;5015767;28;19944;-70
2023/10/03 09:19:44;;;;;;;;;;;20.20;99.90;;;;;;5011717;28;20024;-71
2023/10/03 09:22:15;;;;;;;;;;;20.30;99.90;;;;;;5013013;28;19936;-72
2023/10/03 09:24:44;;;;;;;;;;;20.50;99.90;;;;;;5008308;28;20023;-72
2023/10/03 09:27:17;;;;;;;;;;;20.60;99.90;;;;;;5009389;28;20312;-73
2023/10/03 09:29:49;;;;;;;;;;;20.80;99.90;;;;;;5002624;28;19933;-71
2023/10/03 09:32:19;;;;;;;;;;;21.00;99.90;;;;;;5010475;28;19989;-71
2023/10/03 09:34:56;;;;;;;;;;;21.10;99.90;;;;;;5011605;28;20578;-70
2023/10/03 09:37:28;;;;;;;;;;;21.10;99.90;;;;;;5011515;28;19939;-72
2023/10/03 09:39:59;;;;;;;;;;;21.20;99.90;;;;;;5010282;28;20403;-73
2023/10/03 09:42:28;;;;;;;;;;;21.20;99.90;;;;;;5009853;28;19933;-71
2023/10/03 09:44:58;;;;;;;;;;;21.10;99.90;;;;;;5006505;28;19933;-72
2023/10/03 09:47:30;;;;;;;;;;;21.00;99.90;;;;;;5007078;28;19941;-74
2023/10/03 09:50:04;;;;;;;;;;;21.00;99.90;;;;;;5008973;28;19944;-73
2023/10/03 09:52:32;;;;;;;;;;;20.90;99.90;;;;;;5016077;28;19929;-73
2023/10/03 09:55:17;;;;;;;;;;;21.00;99.90;;;;;;5011179;28;20492;-72
2023/10/03 09:57:45;;;;;;;;;;;21.20;99.90;;;;;;5014447;28;19936;-71
2023/10/03 10:00:23;;;;;;;;;;;21.20;99.90;;;;;;5007983;28;19944;-72
2023/10/03 10:02:55;;;;;;;;;;;21.20;99.90;;;;;;5011470;28;19933;-72
2023/10/03 10:05:27;;;;;;;;;;;21.40;99.90;;;;;;5010455;28;19936;-72
2023/10/03 10:08:06;;;;;;;;;;;21.40;99.90;;;;;;5008338;28;19933;-72
2023/10/03 10:10:36;;;;;;;;;;;21.60;99.90;;;;;;4982990;28;20048;-74
2023/10/03 10:13:12;;;;;;;;;;;21.70;99.90;;;;;;5001836;28;19934;-72
2023/10/03 10:15:59;;;;;;;;;;;21.80;99.90;;;;;;4984529;28;20018;-74
2023/10/03 10:18:43;;;;;;;;;;;21.90;99.90;;;;;;5000574;28;19935;-71
2023/10/03 10:21:25;;;;;;;;;;;21.90;99.90;;;;;;5001156;28;19955;-71
2023/10/03 10:24:13;;;;;;;;;;;21.90;99.90;;;;;;5000282;28;19938;-72
2023/10/03 10:26:48;;;;;;;;;;;21.80;99.90;;;;;;4998167;28;19959;-72
2023/10/03 10:29:19;;;;;;;;;;;21.80;99.90;;;;;;4980092;28;20325;-71
2023/10/03 10:31:52;;;;;;;;;;;21.90;99.90;;;;;;5000098;28;20412;-72
2023/10/03 10:34:40;;;;;;;;;;;22.00;99.90;;;;;;5000023;28;19948;-72
2023/10/03 10:37:10;;;;;;;;;;;22.20;99.90;;;;;;5000687;28;20408;-72
2023/10/03 10:40:04;;;;;;;;;;;22.40;99.90;;;;;;4999690;28;19930;-72
2023/10/03 10:42:54;;;;;;;;;;;22.60;99.90;;;;;;5000527;28;20612;-72
2023/10/03 10:45:22;;;;;;;;;;;23.10;99.90;;;;;;5001342;28;19960;-72
2023/10/03 10:47:50;;;;;;;;;;;23.60;99.90;;;;;;4999022;28;19941;-71
2023/10/03 10:50:21;;;;;;;;;;;23.90;99.90;;;;;;4997387;28;19933;-71
2023/10/03 10:52:51;;;;;;;;;;;24.10;99.90;;;;;;4999752;28;19934;-73
2023/10/03 10:55:21;;;;;;;;;;;24.30;99.90;;;;;;4999053;28;19933;-72
2023/10/03 10:58:00;;;;;;;;;;;24.40;99.90;;;;;;4999442;28;19938;-70
2023/10/03 11:00:28;;;;;;;;;;;24.40;99.90;;;;;;4999484;28;20988;-71
2023/10/03 11:02:56;;;;;;;;;;;24.00;99.90;;;;;;4998973;28;19933;-73
2023/10/03 11:05:29;;;;;;;;;;;23.80;99.90;;;;;;5000726;28;19940;-71
2023/10/03 11:07:57;;;;;;;;;;;23.60;99.90;;;;;;5000243;28;19937;-73
2023/10/03 11:10:25;;;;;;;;;;;23.70;99.90;;;;;;5011534;28;19933;-70
2023/10/03 11:13:07;;;;;;;;;;;23.90;99.90;;;;;;5009123;28;19992;-71
2023/10/03 11:15:35;;;;;;;;;;;24.20;99.90;;;;;;5006140;28;19925;-71
2023/10/03 11:18:04;;;;;;;;;;;24.70;99.90;;;;;;5012539;28;19933;-72
2023/10/03 11:20:33;;;;;;;;;;;24.80;99.90;;;;;;5010375;28;19933;-72
2023/10/03 11:23:01;;;;;;;;;;;24.70;99.90;;;;;;5013561;28;19940;-71
2023/10/03 11:25:28;;;;;;;;;;;24.40;99.90;;;;;;4993950;28;19992;-73
2023/10/03 11:28:07;;;;;;;;;;;24.40;99.90;;;;;;5011303;28;19936;-70
2023/10/03 11:30:35;;;;;;;;;;;24.20;99.90;;;;;;5007722;28;20028;-73
2023/10/03 11:33:03;;;;;;;;;;;24.10;99.90;;;;;;5014132;28;20997;-75
2023/10/03 11:35:32;;;;;;;;;;;24.00;99.90;;;;;;5014964;28;19933;-73
2023/10/03 11:38:06;;;;;;;;;;;23.90;99.90;;;;;;5018510;28;19949;-72
2023/10/03 11:40:34;;;;;;;;;;;23.90;99.90;;;;;;5014316;28;20040;-71
2023/10/03 11:43:03;;;;;;;;;;;24.00;99.90;;;;;;5016237;28;19928;-72
2023/10/03 11:45:33;;;;;;;;;;;24.10;99.90;;;;;;5012143;28;19939;-71
2023/10/03 11:48:04;;;;;;;;;;;24.20;99.90;;;;;;5015008;28;19987;-73
2023/10/03 11:50:34;;;;;;;;;;;24.60;99.90;;;;;;5014152;28;19933;-73
2023/10/03 11:53:02;;;;;;;;;;;25.30;99.90;;;;;;5013684;28;19944;-73
2023/10/03 11:55:32;;;;;;;;;;;25.50;99.90;;;;;;5014389;28;19960;-71
2023/10/03 11:58:00;;;;;;;;;;;25.60;99.90;;;;;;5010662;28;19933;-73
2023/10/03 12:00:29;;;;;;;;;;;25.40;99.90;;;;;;5007409;28;19940;-73
2023/10/03 12:02:59;;;;;;;;;;;25.30;99.90;;;;;;4996415;28;19952;-72
2023/10/03 12:05:27;;;;;;;;;;;25.10;99.90;;;;;;5009916;28;19939;-71
2023/10/03 12:07:56;;;;;;;;;;;25.00;99.90;;;;;;5013008;28;20471;-70
2023/10/03 12:10:26;;;;;;;;;;;24.70;99.90;;;;;;5011166;28;19972;-70
2023/10/03 12:12:54;;;;;;;;;;;24.50;99.90;;;;;;5012407;28;20280;-71
2023/10/03 12:15:23;;;;;;;;;;;24.40;99.90;;;;;;5012678;28;19933;-73
2023/10/03 12:17:52;;;;;;;;;;;24.40;99.90;;;;;;5011399;28;20400;-71
2023/10/03 12:20:22;;;;;;;;;;;24.20;99.90;;;;;;5008440;28;20829;-72
2023/10/03 12:22:51;;;;;;;;;;;23.90;99.90;;;;;;5009483;28;19933;-72
2023/10/03 12:25:20;;;;;;;;;;;23.70;99.90;;;;;;5012150;28;19933;-70
2023/10/03 12:27:49;;;;;;;;;;;23.40;99.90;;;;;;5009713;28;19929;-72
2023/10/03 12:30:17;;;;;;;;;;;23.20;99.90;;;;;;5008938;28;19941;-72
2023/10/03 12:32:46;;;;;;;;;;;22.80;99.90;;;;;;5009489;28;19930;-71
2023/10/03 12:35:14;;;;;;;;;;;22.10;99.90;;;;;;5012158;28;19933;-74
2023/10/03 12:37:46;;;;;;;;;;;21.50;99.90;;;;;;5013667;28;19934;-71
2023/10/03 12:40:16;;;;;;;;;;;20.80;99.90;;;;;;5009164;28;19933;-74
2023/10/03 12:42:47;;;;;;;;;;;20.40;99.90;;;;;;5010358;28;19937;-72
2023/10/03 12:45:16;;;;;;;;;;;19.90;99.90;;;;;;5011235;28;19940;-72
2023/10/03 12:47:47;;;;;;;;;;;19.80;99.90;;;;;;5011839;28;19928;-71
2023/10/03 12:50:15;;;;;;;;;;;19.60;99.90;;;;;;5012706;28;20028;-71
2023/10/03 12:52:44;;;;;;;;;;;19.40;99.90;;;;;;5008807;28;19933;-73
2023/10/03 12:55:13;;;;;;;;;;;19.20;99.90;;;;;;5007790;28;20014;-75
2023/10/03 12:57:40;;;;;;;;;;;19.00;99.90;;;;;;5014115;28;20426;-74
2023/10/03 13:00:09;;;;;;;;;;;18.90;99.90;;;;;;5007642;28;19926;-74
2023/10/03 13:02:37;;;;;;;;;;;18.80;99.90;;;;;;5010409;28;20040;-74
2023/10/03 13:05:06;;;;;;;;;;;18.80;99.90;;;;;;5010239;28;19971;-75
2023/10/03 13:07:35;;;;;;;;;;;18.60;99.90;;;;;;5009255;28;19940;-72
2023/10/03 13:10:06;;;;;;;;;;;18.50;99.90;;;;;;5006042;28;20506;-72
2023/10/03 13:12:34;;;;;;;;;;;18.50;99.90;;;;;;5011862;28;19940;-71
2023/10/03 13:15:03;;;;;;;;;;;18.50;99.90;;;;;;5006838;28;19933;-73
2023/10/03 13:17:31;;;;;;;;;;;18.50;99.90;;;;;;5012839;28;20469;-72
2023/10/03 13:19:59;;;;;;;;;;;18.50;99.90;;;;;;5012398;28;20019;-73
2023/10/03 13:22:27;;;;;;;;;;;18.40;99.90;;;;;;5013884;28;20020;-72
2023/10/03 13:24:55;;;;;;;;;;;18.40;99.90;;;;;;5011616;28;20915;-71
2023/10/03 13:27:25;;;;;;;;;;;18.40;99.90;;;;;;5014188;28;19933;-75
2023/10/03 13:29:53;;;;;;;;;;;18.40;99.90;;;;;;5007107;28;19940;-73
2023/10/03 13:32:21;;;;;;;;;;;18.50;99.90;;;;;;5006425;28;19965;-73
2023/10/03 13:34:50;;;;;;;;;;;18.50;99.90;;;;;;5009738;28;20019;-71
2023/10/03 13:37:20;;;;;;;;;;;18.50;99.90;;;;;;5012708;28;19933;-71
2023/10/03 13:39:48;;;;;;;;;;;18.50;99.90;;;;;;5006687;28;19940;-70
2023/10/03 13:42:15;;;;;;;;;;;18.50;99.90;;;;;;5010289;28;19928;-70
2023/10/03 13:44:51;;;;;;;;;;;18.50;99.90;;;;;;5013737;28;19933;-70
2023/10/03 13:47:18;;;;;;;;;;;18.40;99.90;;;;;;4998539;28;21059;-70
2023/10/03 13:49:47;;;;;;;;;;;18.40;99.90;;;;;;5011837;28;19940;-70
2023/10/03 13:52:16;;;;;;;;;;;18.30;99.90;;;;;;5018217;28;19933;-71
2023/10/03 13:54:44;;;;;;;;;;;18.30;99.90;;;;;;5012518;28;20031;-70
2023/10/03 13:57:12;;;;;;;;;;;18.40;99.90;;;;;;5017090;28;19933;-72
2023/10/03 13:59:41;;;;;;;;;;;18.40;99.90;;;;;;5016514;28;20360;-73
2023/10/03 14:02:10;;;;;;;;;;;18.50;99.90;;;;;;5016000;28;20415;-71
2023/10/03 14:04:38;;;;;;;;;;;18.40;99.90;;;;;;5012319;28;19928;-74
2023/10/03 14:07:06;;;;;;;;;;;18.40;99.90;;;;;;5016442;28;19936;-72
2023/10/03 14:09:35;;;;;;;;;;;18.30;99.90;;;;;;5012275;28;19933;-74
2023/10/03 14:12:05;;;;;;;;;;;18.30;99.90;;;;;;4995554;28;19977;-71
2023/10/03 14:14:33;;;;;;;;;;;18.30;99.90;;;;;;5010011;28;19940;-72
2023/10/03 14:17:01;;;;;;;;;;;18.20;99.90;;;;;;5014973;28;19933;-71
2023/10/03 14:19:34;;;;;;;;;;;18.20;99.90;;;;;;5015536;28;20601;-74
2023/10/03 14:22:02;;;;;;;;;;;18.10;99.90;;;;;;5014840;28;19933;-73
2023/10/03 14:24:30;;;;;;;;;;;18.00;99.90;;;;;;5015490;28;20498;-71
2023/10/03 14:26:59;;;;;;;;;;;18.00;99.90;;;;;;5015193;28;20723;-73
2023/10/03 14:29:27;;;;;;;;;;;18.00;99.90;;;;;;5013977;28;19929;-72
2023/10/03 14:31:56;;;;;;;;;;;17.90;99.90;;;;;;5012654;28;20419;-70